createdAt,value
2023-03-26T00:00:44.109Z,0.60
2023-03-26T00:03:11.894Z,0.70
2023-03-26T00:05:39.590Z,0.73
2023-03-26T00:08:08.775Z,0.70
2023-03-26T00:10:39.891Z,0.98
2023-03-26T00:13:06.864Z,0.95
2023-03-26T00:15:34.984Z,0.70
2023-03-26T00:18:01.764Z,0.85
2023-03-26T00:20:29.689Z,1.00
2023-03-26T00:22:56.504Z,1.77
2023-03-26T00:25:23.698Z,0.73
2023-03-26T00:27:50.733Z,1.17
2023-03-26T00:30:17.274Z,1.00
2023-03-26T00:32:44.122Z,1.05
2023-03-26T00:35:20.757Z,0.70
2023-03-26T00:37:47.850Z,1.20
2023-03-26T00:40:14.412Z,0.90
2023-03-26T00:42:42.468Z,1.08
2023-03-26T00:45:09.497Z,0.77
2023-03-26T00:47:36.568Z,0.95
2023-03-26T00:50:04.337Z,0.70
2023-03-26T00:52:31.694Z,0.90
2023-03-26T00:54:58.235Z,0.70
2023-03-26T00:57:35.498Z,0.88
2023-03-26T01:00:07.011Z,0.90
2023-03-26T01:02:33.584Z,0.70
2023-03-26T01:05:02.940Z,0.63
2023-03-26T01:07:29.964Z,0.70
2023-03-26T01:09:59.299Z,0.60
2023-03-26T01:12:28.274Z,0.70
2023-03-26T01:14:57.176Z,0.80
2023-03-26T01:17:24.113Z,0.70
2023-03-26T01:20:15.141Z,0.82
2023-03-26T01:22:46.434Z,0.90
2023-03-26T01:25:13.453Z,1.83
2023-03-26T01:27:43.427Z,0.90
2023-03-26T01:30:34.401Z,1.17
2023-03-26T01:33:14.152Z,15.02
2023-03-26T01:36:06.071Z,0.80
2023-03-26T01:38:46.788Z,1.00
2023-03-26T01:41:51.950Z,0.88
2023-03-26T01:44:18.389Z,0.70
2023-03-26T01:46:45.550Z,0.70
2023-03-26T01:49:13.530Z,0.65
2023-03-26T01:51:42.214Z,0.70
2023-03-26T01:54:12.260Z,1.20
2023-03-26T01:57:03.238Z,0.82
2023-03-26T01:59:47.788Z,0.77
2023-03-26T02:02:18.498Z,0.85
2023-03-26T02:05:09.610Z,0.85
2023-03-26T02:07:47.913Z,0.70
2023-03-26T02:10:19.364Z,1.05
2023-03-26T02:12:46.108Z,0.80
2023-03-26T02:15:12.921Z,0.73
2023-03-26T02:17:40.379Z,0.80
2023-03-26T02:20:12.385Z,0.95
2023-03-26T02:22:45.598Z,0.75
2023-03-26T02:25:18.758Z,0.80
2023-03-26T02:27:47.170Z,0.82
2023-03-26T02:30:17.994Z,0.95
2023-03-26T02:32:47.609Z,0.40
2023-03-26T02:35:14.219Z,1.00
2023-03-26T02:37:42.037Z,0.60
2023-03-26T02:40:14.174Z,0.65
2023-03-26T02:42:43.018Z,0.80
2023-03-26T02:45:09.858Z,1.77
2023-03-26T02:47:57.528Z,1.00
2023-03-26T02:50:43.425Z,1.00
2023-03-26T02:53:37.603Z,0.70
2023-03-26T02:56:30.240Z,0.70
2023-03-26T02:59:14.825Z,1.10
2023-03-26T03:01:44.083Z,0.90
2023-03-26T03:04:13.245Z,1.10
2023-03-26T03:06:40.903Z,0.68
2023-03-26T03:09:11.332Z,0.57
2023-03-26T03:11:39.526Z,1.10
2023-03-26T03:14:07.531Z,0.98
2023-03-26T03:16:34.937Z,0.82
2023-03-26T03:19:09.618Z,1.25
2023-03-26T03:21:37.741Z,0.80
2023-03-26T03:24:05.146Z,0.50
2023-03-26T03:26:36.367Z,0.70
2023-03-26T03:29:14.261Z,0.82
2023-03-26T03:31:41.694Z,0.98
2023-03-26T03:34:18.558Z,0.77
2023-03-26T03:36:50.115Z,0.70
2023-03-26T03:39:32.937Z,0.65
2023-03-26T03:41:59.605Z,0.70
2023-03-26T03:44:26.142Z,0.68
2023-03-26T03:46:55.530Z,0.85
2023-03-26T03:49:23.032Z,0.82
2023-03-26T03:51:49.548Z,0.60
2023-03-26T03:54:24.894Z,0.90
2023-03-26T03:57:18.664Z,0.63
2023-03-26T04:00:01.434Z,0.90
2023-03-26T04:02:43.020Z,0.60
2023-03-26T04:05:11.690Z,0.95
2023-03-26T04:07:43.900Z,0.85
2023-03-26T04:10:43.881Z,1.00
2023-03-26T04:13:16.562Z,0.93
2023-03-26T04:16:15.470Z,0.50
2023-03-26T04:18:42.089Z,0.70
2023-03-26T04:21:15.844Z,0.80
2023-03-26T04:23:44.335Z,0.80
2023-03-26T04:26:23.899Z,0.90
2023-03-26T04:29:11.887Z,0.73
2023-03-26T04:31:38.741Z,1.00
2023-03-26T04:34:08.520Z,0.82
2023-03-26T04:36:43.374Z,0.95
2023-03-26T04:39:12.149Z,0.85
2023-03-26T04:42:04.771Z,1.10
2023-03-26T04:44:43.217Z,1.00
2023-03-26T04:47:13.129Z,1.05
2023-03-26T04:49:46.179Z,0.95
2023-03-26T04:52:15.358Z,0.80
2023-03-26T04:54:57.175Z,1.10
2023-03-26T04:57:29.425Z,0.88
2023-03-26T05:00:11.851Z,0.73
2023-03-26T05:02:39.901Z,0.82
2023-03-26T05:07:33.862Z,1.58
2023-03-26T05:10:03.317Z,0.95
2023-03-26T05:12:35.669Z,1.02
2023-03-26T05:15:06.871Z,1.10
2023-03-26T05:17:59.616Z,1.05
2023-03-26T05:20:31.086Z,1.08
2023-03-26T05:22:57.666Z,0.77
2023-03-26T05:25:34.742Z,0.63
2023-03-26T05:28:02.865Z,0.88
2023-03-26T05:30:39.084Z,0.90
2023-03-26T05:33:06.577Z,1.20
2023-03-26T05:35:43.465Z,1.33
2023-03-26T05:38:10.787Z,0.70
2023-03-26T05:40:37.319Z,1.30
2023-03-26T05:45:39.117Z,0.98
2023-03-26T05:48:32.037Z,1.48
2023-03-26T05:50:59.039Z,1.13
2023-03-26T05:53:28.147Z,0.77
2023-03-26T05:56:33.152Z,1.00
2023-03-26T05:59:38.022Z,0.60
2023-03-26T06:02:23.858Z,0.82
2023-03-26T06:05:13.431Z,0.82
2023-03-26T06:08:01.476Z,0.93
2023-03-26T06:10:38.503Z,0.70
2023-03-26T06:13:05.703Z,1.13
2023-03-26T06:15:35.251Z,0.88
2023-03-26T06:18:08.392Z,0.60
2023-03-26T06:20:58.046Z,1.15
2023-03-26T06:26:10.610Z,0.80
2023-03-26T06:28:45.768Z,0.52
2023-03-26T06:31:30.813Z,0.82
2023-03-26T06:34:13.013Z,1.00
2023-03-26T06:36:39.529Z,0.60
2023-03-26T06:39:07.805Z,0.65
2023-03-26T06:41:36.102Z,0.60
2023-03-26T06:44:19.909Z,0.70
2023-03-26T06:47:04.819Z,0.98
2023-03-26T06:50:04.280Z,0.68
2023-03-26T06:52:42.574Z,0.57
2023-03-26T06:55:26.162Z,0.85
2023-03-26T06:58:12.841Z,1.02
2023-03-26T07:03:26.331Z,1.10
2023-03-26T07:06:11.283Z,0.88
2023-03-26T07:08:57.379Z,0.82
2023-03-26T07:11:27.071Z,0.80
2023-03-26T07:14:12.234Z,1.50
2023-03-26T07:16:47.727Z,0.80
2023-03-26T07:19:33.803Z,0.90
2023-03-26T07:22:00.949Z,1.08
2023-03-26T07:24:59.784Z,0.60
2023-03-26T07:27:52.291Z,0.70
2023-03-26T07:30:37.183Z,0.70
2023-03-26T07:33:29.457Z,0.88
2023-03-26T07:36:54.788Z,0.70
2023-03-26T07:39:39.212Z,1.05
2023-03-26T07:43:01.873Z,0.60
2023-03-26T07:45:57.671Z,0.80
2023-03-26T07:48:51.891Z,1.20
2023-03-26T07:51:40.503Z,0.82
2023-03-26T07:54:16.117Z,1.02
2023-03-26T07:59:40.891Z,1.00
2023-03-26T08:02:51.499Z,1.20
2023-03-26T08:05:44.590Z,0.90
2023-03-26T08:08:53.381Z,1.58
2023-03-26T08:12:15.363Z,1.00
2023-03-26T08:15:14.278Z,1.20
2023-03-26T08:17:54.597Z,1.05
2023-03-26T08:20:34.261Z,1.63
2023-03-26T08:23:10.849Z,1.42
2023-03-26T08:25:50.001Z,1.08
2023-03-26T08:28:37.879Z,1.10
2023-03-26T08:31:05.951Z,1.35
2023-03-26T08:33:38.269Z,1.00
2023-03-26T08:36:06.166Z,1.20
2023-03-26T08:38:32.845Z,1.25
2023-03-26T08:41:08.155Z,1.75
2023-03-26T08:43:46.924Z,1.73
2023-03-26T08:46:51.286Z,1.10
2023-03-26T08:49:27.870Z,1.10
2023-03-26T08:52:33.799Z,1.40
2023-03-26T08:55:26.639Z,1.73
2023-03-26T08:58:25.554Z,1.23
2023-03-26T09:01:37.269Z,1.05
2023-03-26T09:04:36.483Z,1.33
2023-03-26T09:07:34.043Z,1.15
2023-03-26T09:10:15.809Z,1.13
2023-03-26T09:13:16.315Z,1.58
2023-03-26T09:15:48.742Z,1.10
2023-03-26T09:18:37.088Z,1.00
2023-03-26T09:21:24.892Z,1.30
2023-03-26T09:24:14.160Z,0.85
2023-03-26T09:27:07.956Z,1.40
2023-03-26T09:29:54.930Z,1.55
2023-03-26T09:32:48.060Z,1.50
2023-03-26T09:35:36.350Z,0.98
2023-03-26T09:38:26.624Z,1.65
2023-03-26T09:41:02.366Z,1.17
2023-03-26T09:44:08.224Z,1.27
2023-03-26T09:46:51.812Z,1.55
2023-03-26T09:49:36.350Z,0.90
2023-03-26T09:52:38.091Z,1.17
2023-03-26T09:55:26.230Z,1.48
2023-03-26T09:58:14.708Z,1.55
2023-03-26T10:00:45.810Z,1.05
2023-03-26T10:03:26.968Z,1.25
2023-03-26T10:06:12.511Z,1.10
2023-03-26T10:08:50.993Z,1.45
2023-03-26T10:11:54.569Z,1.65
2023-03-26T10:18:38.582Z,1.00
2023-03-26T10:21:09.161Z,1.15
2023-03-26T10:23:38.904Z,0.95
2023-03-26T10:26:21.718Z,0.73
2023-03-26T10:28:56.829Z,0.70
2023-03-26T10:31:37.103Z,0.95
2023-03-26T10:34:29.226Z,0.40
2023-03-26T10:37:20.983Z,0.55
2023-03-26T10:40:09.669Z,0.85
2023-03-26T10:43:05.426Z,0.90
2023-03-26T10:45:46.884Z,0.75
2023-03-26T11:00:44.120Z,0.30
2023-03-26T11:08:31.682Z,0.32
2023-03-26T11:11:48.525Z,0.45
2023-03-26T11:14:34.505Z,0.45
2023-03-26T11:17:40.216Z,0.30
2023-03-26T11:20:15.904Z,0.25
2023-03-26T11:23:02.757Z,0.30
2023-03-26T11:25:44.209Z,0.50
2023-03-26T11:28:32.466Z,0.30
2023-03-26T11:31:17.197Z,0.50
2023-03-26T11:33:50.493Z,0.35
2023-03-26T11:36:21.415Z,0.20
2023-03-26T11:38:49.748Z,0.60
2023-03-26T11:41:26.458Z,0.60
2023-03-26T11:44:14.762Z,0.57
2023-03-26T11:46:44.277Z,0.30
2023-03-26T11:49:13.136Z,0.50
2023-03-26T11:51:41.275Z,0.50
2023-03-26T11:54:10.839Z,0.82
2023-03-26T11:57:04.389Z,0.60
2023-03-26T11:59:56.673Z,0.40
2023-03-26T12:02:38.793Z,0.40
2023-03-26T12:05:15.685Z,0.40
2023-03-26T12:07:46.581Z,0.32
2023-03-26T12:10:25.616Z,0.60
2023-03-26T12:12:56.392Z,0.50
2023-03-26T12:15:23.028Z,0.50
2023-03-26T12:17:53.691Z,0.60
2023-03-26T12:20:26.382Z,0.38
2023-03-26T12:23:00.793Z,0.40
2023-03-26T12:25:37.739Z,0.32
2023-03-26T12:28:13.833Z,0.55
2023-03-26T12:30:42.297Z,0.57
2023-03-26T12:33:28.357Z,0.55
2023-03-26T12:35:58.064Z,0.50
2023-03-26T12:38:34.784Z,0.50
2023-03-26T12:43:51.320Z,0.77
2023-03-26T12:44:50.183Z,0.40
2023-03-26T12:47:57.876Z,0.57
2023-03-26T12:50:14.404Z,0.50
2023-03-26T12:53:19.197Z,0.32
2023-03-26T12:56:00.616Z,0.73
2023-03-26T12:58:41.090Z,0.45
2023-03-26T13:01:15.882Z,0.45
2023-03-26T13:03:59.162Z,0.65
2023-03-26T13:07:00.958Z,0.57
2023-03-26T13:09:52.768Z,0.57
2023-03-26T13:12:40.429Z,0.50
2023-03-26T13:15:33.108Z,0.40
2023-03-26T13:18:35.678Z,0.50
2023-03-26T13:21:11.193Z,0.85
2023-03-26T13:24:04.199Z,0.50
2023-03-26T13:26:41.729Z,0.43
2023-03-26T13:29:17.485Z,0.52
2023-03-26T13:32:09.199Z,0.57
2023-03-26T13:35:05.465Z,0.70
2023-03-26T13:37:41.127Z,0.68
2023-03-26T13:40:22.220Z,0.70
2023-03-26T13:43:31.010Z,1.38
2023-03-26T13:46:04.188Z,0.82
2023-03-26T13:48:40.198Z,1.00
2023-03-26T13:51:16.883Z,0.65
2023-03-26T13:53:48.848Z,0.93
2023-03-26T13:56:17.663Z,0.80
2023-03-26T13:58:52.495Z,0.73
2023-03-26T14:01:34.963Z,0.90
2023-03-26T14:04:19.490Z,1.20
2023-03-26T14:07:07.178Z,1.05
2023-03-26T14:09:45.612Z,1.42
2023-03-26T14:12:21.455Z,1.35
2023-03-26T14:14:50.904Z,14.35
2023-03-26T14:17:22.549Z,3.75
2023-03-26T14:20:28.015Z,24.42
2023-03-26T14:23:04.580Z,15.70
2023-03-26T14:25:56.259Z,12.00
2023-03-26T14:29:04.482Z,26.13
2023-03-26T14:31:56.779Z,39.20
2023-03-26T14:34:34.700Z,30.55
2023-03-26T14:37:29.567Z,40.25
2023-03-26T14:40:23.836Z,31.27
2023-03-26T14:42:56.528Z,40.47
2023-03-26T14:45:49.772Z,64.78
2023-03-26T14:48:44.764Z,42.53
2023-03-26T14:51:30.332Z,0.90
2023-03-26T14:54:01.268Z,0.43
2023-03-26T14:56:39.252Z,0.60
2023-03-26T14:59:47.644Z,0.45
2023-03-26T15:02:20.601Z,1.15
2023-03-26T15:04:55.728Z,0.20
2023-03-26T15:07:41.407Z,0.90
2023-03-26T15:10:17.256Z,0.60
2023-03-26T15:13:05.766Z,0.50
2023-03-26T15:15:54.165Z,0.63
2023-03-26T15:18:44.576Z,0.50
2023-03-26T15:21:17.396Z,0.55
2023-03-26T15:24:06.622Z,0.32
2023-03-26T15:27:01.628Z,0.30
2023-03-26T15:29:35.504Z,0.10
2023-03-26T15:32:26.357Z,0.22
2023-03-26T15:35:06.697Z,0.20
2023-03-26T15:38:21.156Z,0.20
2023-03-26T15:40:54.463Z,0.20
2023-03-26T15:43:21.446Z,0.25
2023-03-26T15:45:53.918Z,0.32
2023-03-26T15:48:37.446Z,0.50
2023-03-26T15:51:16.561Z,0.30
2023-03-26T15:54:00.567Z,0.43
2023-03-26T15:56:27.394Z,0.40
2023-03-26T15:59:07.298Z,0.52
2023-03-26T16:02:09.937Z,0.40
2023-03-26T16:04:54.875Z,0.30
2023-03-26T16:07:24.256Z,0.40
2023-03-26T16:09:57.087Z,0.43
2023-03-26T16:12:27.489Z,0.40
2023-03-26T16:15:07.228Z,0.38
2023-03-26T16:18:19.474Z,0.20
2023-03-26T16:20:57.121Z,0.32
2023-03-26T16:23:47.844Z,0.40
2023-03-26T16:26:27.595Z,0.30
2023-03-26T16:29:29.246Z,0.82
2023-03-26T16:32:16.986Z,0.95
2023-03-26T16:35:00.325Z,0.50
2023-03-26T16:37:33.695Z,0.50
2023-03-26T16:40:18.520Z,0.70
2023-03-26T16:43:03.340Z,0.63
2023-03-26T16:45:45.351Z,0.57
2023-03-26T16:48:30.548Z,0.50
2023-03-26T16:51:21.950Z,0.70
2023-03-26T16:54:14.611Z,0.70
2023-03-26T16:57:01.998Z,0.43
2023-03-26T17:00:05.456Z,0.30
2023-03-26T17:03:04.441Z,0.70
2023-03-26T17:05:37.681Z,0.55
2023-03-26T17:08:36.058Z,0.80
2023-03-26T17:11:10.902Z,0.88
2023-03-26T17:13:48.984Z,0.60
2023-03-26T17:16:22.221Z,0.95
2023-03-26T17:19:00.660Z,0.65
2023-03-26T17:21:56.263Z,0.70
2023-03-26T17:24:49.678Z,0.88
2023-03-26T17:27:47.280Z,0.32
2023-03-26T17:30:35.938Z,0.55
2023-03-26T17:33:02.466Z,0.68
2023-03-26T17:35:36.533Z,0.47
2023-03-26T17:38:04.031Z,0.82
2023-03-26T17:40:45.711Z,0.50
2023-03-26T17:43:32.193Z,0.50
2023-03-26T17:46:02.683Z,1.13
2023-03-26T17:48:35.373Z,0.88
2023-03-26T17:51:06.432Z,0.70
2023-03-26T17:53:34.858Z,0.80
2023-03-26T17:56:06.503Z,0.90
2023-03-26T17:58:37.617Z,0.45
2023-03-26T18:01:05.034Z,0.93
2023-03-26T18:03:45.239Z,0.38
2023-03-26T18:06:14.575Z,0.30
2023-03-26T18:08:47.569Z,0.35
2023-03-26T18:11:29.234Z,0.35
2023-03-26T18:14:23.576Z,0.40
2023-03-26T18:17:01.351Z,0.40
2023-03-26T18:19:28.781Z,0.40
2023-03-26T18:22:00.374Z,0.70
2023-03-26T18:24:30.439Z,0.50
2023-03-26T18:27:01.441Z,0.65
2023-03-26T18:29:30.540Z,0.45
2023-03-26T18:32:19.736Z,0.60
2023-03-26T18:34:52.516Z,0.38
2023-03-26T18:37:34.316Z,0.60
2023-03-26T18:40:16.233Z,0.47
2023-03-26T18:42:49.176Z,0.20
2023-03-26T18:45:27.803Z,0.38
2023-03-26T18:48:00.414Z,0.40
2023-03-26T18:50:30.960Z,0.30
2023-03-26T18:52:59.595Z,0.40
2023-03-26T18:55:27.823Z,0.40
2023-03-26T18:57:54.396Z,0.20
2023-03-26T19:00:23.205Z,0.57
2023-03-26T19:02:54.552Z,0.22
2023-03-26T19:05:21.217Z,0.40
2023-03-26T19:07:48.074Z,0.50
2023-03-26T19:10:18.870Z,0.40
2023-03-26T19:12:46.413Z,1.00
2023-03-26T19:15:15.986Z,0.32
2023-03-26T19:17:51.420Z,0.40
2023-03-26T19:20:20.975Z,0.55
2023-03-26T19:22:47.886Z,0.60
2023-03-26T19:25:39.167Z,0.50
2023-03-26T19:28:07.029Z,0.55
2023-03-26T19:30:36.102Z,0.50
2023-03-26T19:33:13.964Z,0.40
2023-03-26T19:35:42.176Z,0.40
2023-03-26T19:38:22.587Z,0.30
2023-03-26T19:40:50.871Z,0.60
2023-03-26T19:43:17.848Z,0.40
2023-03-26T19:45:59.922Z,0.30
2023-03-26T19:48:45.277Z,0.52
2023-03-26T19:51:25.778Z,0.32
2023-03-26T19:53:55.465Z,0.40
2023-03-26T19:56:22.795Z,0.40
2023-03-26T19:58:50.323Z,0.63
2023-03-26T20:01:19.333Z,0.45
2023-03-26T20:03:48.112Z,0.25
2023-03-26T20:06:17.269Z,0.40
2023-03-26T20:08:44.069Z,0.57
2023-03-26T20:11:20.189Z,0.45
2023-03-26T20:13:46.864Z,0.55
2023-03-26T20:16:23.490Z,0.63
2023-03-26T20:18:53.792Z,0.60
2023-03-26T20:21:21.052Z,0.50
2023-03-26T20:23:47.963Z,0.20
2023-03-26T20:26:16.512Z,0.40
2023-03-26T20:28:48.154Z,0.28
2023-03-26T20:31:25.084Z,0.43
2023-03-26T20:33:53.103Z,0.22
2023-03-26T20:36:33.020Z,0.22
2023-03-26T20:39:05.848Z,0.30
2023-03-26T20:41:33.721Z,0.20
2023-03-26T20:44:00.628Z,0.32
2023-03-26T20:46:31.236Z,0.20
2023-03-26T20:48:58.924Z,0.32
2023-03-26T20:51:27.981Z,0.20
2023-03-26T20:53:55.241Z,0.22
2023-03-26T20:56:22.709Z,0.30
2023-03-26T20:58:54.716Z,0.20
2023-03-26T21:01:27.775Z,0.10
2023-03-26T21:03:54.458Z,0.30
2023-03-26T21:06:20.987Z,0.32
2023-03-26T21:08:47.783Z,0.28
2023-03-26T21:11:27.233Z,0.32
2023-03-26T21:14:00.899Z,0.35
2023-03-26T21:16:27.815Z,0.45
2023-03-26T21:18:54.555Z,0.20
2023-03-26T21:21:43.656Z,0.20
2023-03-26T21:24:33.212Z,0.20
2023-03-26T21:27:15.136Z,0.10
2023-03-26T21:29:41.951Z,0.50
2023-03-26T21:32:11.055Z,0.05
2023-03-26T21:34:42.090Z,0.32
2023-03-26T21:37:15.150Z,0.35
2023-03-26T21:39:44.788Z,0.20
2023-03-26T21:42:12.799Z,0.22
2023-03-26T21:44:39.731Z,0.30
2023-03-26T21:47:09.967Z,0.22
2023-03-26T21:49:37.260Z,0.25
2023-03-26T21:52:04.296Z,0.20
2023-03-26T21:54:32.060Z,0.25
2023-03-26T21:57:15.932Z,0.43
2023-03-26T21:59:47.936Z,0.40
2023-03-26T22:02:46.938Z,0.57
2023-03-26T22:05:18.138Z,0.57
2023-03-26T22:07:59.947Z,0.50
2023-03-26T22:10:27.042Z,0.43
2023-03-26T22:12:53.847Z,0.60
2023-03-26T22:15:20.464Z,0.60
2023-03-26T22:17:54.079Z,0.77
2023-03-26T22:20:24.378Z,0.80
2023-03-26T22:22:53.352Z,0.63
2023-03-26T22:25:21.824Z,0.50
2023-03-26T22:27:49.903Z,0.52
2023-03-26T22:32:45.778Z,0.40
2023-03-26T22:35:13.037Z,0.45
2023-03-26T22:37:39.947Z,0.47
2023-03-26T22:40:12.918Z,0.60
2023-03-26T22:42:40.176Z,0.70
2023-03-26T22:45:09.167Z,0.50
2023-03-26T22:47:35.791Z,0.45
2023-03-26T22:50:04.095Z,0.40
2023-03-26T22:52:30.693Z,0.70
2023-03-26T22:54:57.290Z,0.60
2023-03-26T22:57:24.371Z,0.57
2023-03-26T22:59:52.022Z,0.47
2023-03-26T23:02:18.946Z,0.60
2023-03-26T23:04:46.307Z,0.57
2023-03-26T23:07:13.019Z,0.50
2023-03-26T23:09:39.521Z,0.70
2023-03-26T23:12:06.707Z,0.40
2023-03-26T23:14:33.323Z,0.50
2023-03-26T23:17:00.505Z,1.13
2023-03-26T23:19:27.090Z,0.60
2023-03-26T23:21:53.589Z,0.68
2023-03-26T23:24:20.120Z,0.88
2023-03-26T23:29:16.326Z,1.17
2023-03-26T23:31:42.881Z,1.50
2023-03-26T23:34:10.074Z,1.13
2023-03-26T23:36:36.622Z,1.35
2023-03-26T23:39:04.816Z,1.85
2023-03-26T23:41:31.463Z,1.83
2023-03-26T23:43:57.999Z,1.90
2023-03-26T23:46:30.832Z,1.80
2023-03-26T23:49:03.872Z,1.98
2023-03-26T23:51:31.424Z,2.10
2023-03-26T23:53:58.483Z,2.38
2023-03-26T23:56:27.560Z,3.05
2023-03-26T23:58:55.153Z,3.15
